Time;durP1;ratioP1;P1;durP2;ratioP2;P2;SDS_P1;SDS_P2;PMS_P1;PMS_P2;Temp;Humidity;BMP_temperature;BMP_pressure;BME280_temperature;BME280_humidity;BME280_pressure;Samples;Min_cycle;Max_cycle;Signal;HPM_P1;HPM_P2
2022/04/01 00:00:35;;;;;;;1.65;0.60;;;;;;;;;;5095369;28;20114;-71
2022/04/01 00:03:01;;;;;;;0.95;0.50;;;;;;;;;;5114176;28;20718;-73
2022/04/01 00:05:27;;;;;;;2.85;0.70;;;;;;;;;;5114422;28;20043;-69
2022/04/01 00:07:53;;;;;;;1.73;0.65;;;;;;;;;;5117001;27;20031;-69
2022/04/01 00:10:19;;;;;;;3.50;0.73;;;;;;;;;;5134390;27;20031;-70
2022/04/01 00:12:46;;;;;;;1.17;0.50;;;;;;;;;;5134289;27;20374;-72
2022/04/01 00:15:13;;;;;;;2.25;0.70;;;;;;;;;;5134563;27;20083;-73
2022/04/01 00:17:39;;;;;;;2.60;0.60;;;;;;;;;;5134307;27;20027;-66
2022/04/01 00:20:06;;;;;;;2.25;0.60;;;;;;;;;;5132255;27;20034;-67
2022/04/01 00:22:32;;;;;;;4.75;0.63;;;;;;;;;;5114090;27;20056;-67
2022/04/01 00:24:58;;;;;;;1.73;0.60;;;;;;;;;;5123038;27;20020;-72
2022/04/01 00:27:24;;;;;;;0.88;0.50;;;;;;;;;;5113808;28;20079;-72
2022/04/01 00:29:50;;;;;;;3.03;0.60;;;;;;;;;;5113149;28;20104;-71
2022/04/01 00:32:16;;;;;;;2.97;0.60;;;;;;;;;;5113272;28;20103;-70
2022/04/01 00:34:42;;;;;;;3.13;0.50;;;;;;;;;;5113139;28;20104;-68
2022/04/01 00:37:08;;;;;;;6.85;0.77;;;;;;;;;;5094651;28;20051;-69
2022/04/01 00:39:34;;;;;;;1.50;0.50;;;;;;;;;;5113264;27;20031;-71
2022/04/01 00:42:01;;;;;;;3.33;0.70;;;;;;;;;;5126132;27;20024;-71
2022/04/01 00:44:28;;;;;;;1.48;0.60;;;;;;;;;;5117173;27;20122;-68
2022/04/01 00:46:59;;;;;;;1.58;0.50;;;;;;;;;;5113312;28;20558;-67
2022/04/01 00:49:26;;;;;;;7.43;0.70;;;;;;;;;;5112598;28;20027;-72
2022/04/01 00:51:54;;;;;;;6.72;0.60;;;;;;;;;;5113317;28;20775;-68
2022/04/01 00:54:20;;;;;;;1.55;0.70;;;;;;;;;;5113718;28;20035;-73
2022/04/01 00:56:46;;;;;;;1.25;0.50;;;;;;;;;;5095330;28;20016;-70
2022/04/01 00:59:12;;;;;;;4.10;0.65;;;;;;;;;;5112334;28;20039;-68
2022/04/01 01:01:43;;;;;;;2.53;0.60;;;;;;;;;;5112283;28;20069;-70
2022/04/01 01:04:10;;;;;;;6.60;0.70;;;;;;;;;;5094566;28;20028;-70
2022/04/01 01:06:41;;;;;;;3.20;0.63;;;;;;;;;;5112828;28;20015;-72
2022/04/01 01:09:07;;;;;;;3.15;0.70;;;;;;;;;;5120735;27;20438;-71
2022/04/01 01:11:35;;;;;;;3.60;0.70;;;;;;;;;;5097196;28;20054;-71
2022/04/01 01:14:01;;;;;;;3.08;0.68;;;;;;;;;;5112519;28;20360;-73
2022/04/01 01:16:27;;;;;;;1.98;0.60;;;;;;;;;;5112555;28;20020;-72
2022/04/01 01:19:00;;;;;;;2.75;0.63;;;;;;;;;;5093791;28;20053;-71
2022/04/01 01:21:27;;;;;;;1.85;0.65;;;;;;;;;;5093785;28;20552;-67
2022/04/01 01:23:56;;;;;;;7.10;0.95;;;;;;;;;;5128221;27;20023;-69
2022/04/01 01:26:22;;;;;;;10.45;1.30;;;;;;;;;;5131784;27;20051;-68
2022/04/01 01:28:49;;;;;;;15.05;0.90;;;;;;;;;;5131959;27;20042;-68
2022/04/01 01:31:15;;;;;;;7.70;1.00;;;;;;;;;;5131787;27;20056;-68
2022/04/01 01:33:43;;;;;;;12.10;1.08;;;;;;;;;;5131999;27;20541;-70
2022/04/01 01:36:10;;;;;;;8.50;0.80;;;;;;;;;;5132039;27;20051;-69
2022/04/01 01:38:36;;;;;;;11.25;0.80;;;;;;;;;;5132634;27;20065;-69
2022/04/01 01:41:02;;;;;;;5.68;1.00;;;;;;;;;;5131973;28;20035;-68
2022/04/01 01:43:29;;;;;;;7.38;0.82;;;;;;;;;;5122914;28;20034;-69
2022/04/01 01:45:55;;;;;;;9.63;1.08;;;;;;;;;;5131797;28;20465;-68
2022/04/01 01:48:22;;;;;;;6.95;1.00;;;;;;;;;;5131925;28;20094;-70
2022/04/01 01:56:18;;;;;;;3.20;0.98;;;;;;;;;;5131400;28;20052;-69
2022/04/01 01:58:44;;;;;;;4.13;0.70;;;;;;;;;;5131209;28;20030;-69
2022/04/01 02:01:10;;;;;;;7.47;0.90;;;;;;;;;;5129086;27;20576;-69
2022/04/01 02:03:36;;;;;;;6.03;1.00;;;;;;;;;;5117673;27;20114;-68
2022/04/01 02:06:07;;;;;;;7.00;0.90;;;;;;;;;;5115282;28;20059;-68
2022/04/01 02:08:33;;;;;;;4.18;0.90;;;;;;;;;;5115088;28;20040;-70
2022/04/01 02:10:59;;;;;;;6.78;1.00;;;;;;;;;;5115521;28;20023;-70
2022/04/01 02:13:27;;;;;;;4.13;0.80;;;;;;;;;;5115816;28;20440;-70
2022/04/01 02:15:53;;;;;;;1.60;0.60;;;;;;;;;;5115593;28;20125;-71
2022/04/01 02:18:20;;;;;;;4.10;1.00;;;;;;;;;;5134524;27;20034;-70
2022/04/01 02:20:46;;;;;;;4.35;0.82;;;;;;;;;;5115806;27;20062;-69
2022/04/01 02:23:12;;;;;;;5.18;0.75;;;;;;;;;;5115000;28;20035;-69
2022/04/01 02:25:42;;;;;;;7.68;1.40;;;;;;;;;;5114629;28;20107;-69
2022/04/01 02:28:08;;;;;;;2.45;0.80;;;;;;;;;;5096354;28;20482;-69
2022/04/01 02:30:34;;;;;;;8.27;0.90;;;;;;;;;;5114703;28;20039;-69
2022/04/01 02:33:02;;;;;;;15.05;1.27;;;;;;;;;;5114615;28;20047;-69
2022/04/01 02:35:28;;;;;;;5.70;1.00;;;;;;;;;;5114728;28;20020;-69
2022/04/01 02:37:54;;;;;;;6.10;0.63;;;;;;;;;;5114865;28;20074;-69
2022/04/01 02:40:20;;;;;;;5.72;0.90;;;;;;;;;;5096300;28;20028;-68
2022/04/01 02:42:46;;;;;;;12.10;1.15;;;;;;;;;;5114460;28;20023;-69
2022/04/01 02:45:13;;;;;;;9.30;0.80;;;;;;;;;;5115404;27;20362;-69
2022/04/01 02:47:39;;;;;;;7.22;0.90;;;;;;;;;;5116596;27;20035;-68
2022/04/01 02:50:07;;;;;;;6.43;0.90;;;;;;;;;;5114586;28;20653;-70
2022/04/01 02:52:33;;;;;;;19.08;0.98;;;;;;;;;;5096317;28;20031;-71
2022/04/01 02:54:59;;;;;;;21.60;1.35;;;;;;;;;;5114323;28;20062;-71
2022/04/01 02:57:25;;;;;;;5.18;1.30;;;;;;;;;;5114820;28;20051;-70
2022/04/01 02:59:52;;;;;;;17.35;1.23;;;;;;;;;;5114054;28;20405;-71
2022/04/01 03:02:18;;;;;;;12.23;1.30;;;;;;;;;;5114508;28;20447;-71
2022/04/01 03:04:45;;;;;;;10.02;1.38;;;;;;;;;;5114504;28;20028;-71
2022/04/01 03:07:11;;;;;;;7.68;1.20;;;;;;;;;;5114113;28;20080;-70
2022/04/01 03:09:37;;;;;;;11.55;1.30;;;;;;;;;;5115025;28;20099;-70
2022/04/01 03:12:03;;;;;;;14.27;1.20;;;;;;;;;;5113991;28;20600;-71
2022/04/01 03:14:29;;;;;;;9.27;1.33;;;;;;;;;;5114789;28;20472;-68
2022/04/01 03:16:55;;;;;;;8.48;1.20;;;;;;;;;;5114503;28;20028;-69
2022/04/01 03:19:21;;;;;;;9.98;1.20;;;;;;;;;;5116101;27;20153;-70
2022/04/01 03:21:47;;;;;;;9.80;1.25;;;;;;;;;;5114261;28;20027;-69
2022/04/01 03:24:14;;;;;;;9.02;1.08;;;;;;;;;;5114214;28;20034;-69
2022/04/01 03:26:40;;;;;;;16.20;2.13;;;;;;;;;;5114164;28;20036;-70
2022/04/01 03:29:07;;;;;;;5.45;0.95;;;;;;;;;;5113676;28;20066;-69
2022/04/01 03:31:33;;;;;;;4.35;1.15;;;;;;;;;;5113663;28;20024;-70
2022/04/01 03:33:59;;;;;;;4.40;1.17;;;;;;;;;;5113875;28;20020;-70
2022/04/01 03:36:25;;;;;;;6.22;1.10;;;;;;;;;;5113950;28;20102;-69
2022/04/01 03:38:52;;;;;;;10.07;1.00;;;;;;;;;;5095430;28;20358;-69
2022/04/01 03:41:19;;;;;;;6.53;0.98;;;;;;;;;;5113822;28;20107;-69
2022/04/01 03:43:45;;;;;;;4.55;1.00;;;;;;;;;;5113643;28;20675;-68
2022/04/01 03:46:13;;;;;;;2.05;0.82;;;;;;;;;;5113284;28;20039;-69
2022/04/01 03:48:42;;;;;;;8.30;1.70;;;;;;;;;;5116443;27;20473;-68
2022/04/01 03:51:09;;;;;;;10.23;1.63;;;;;;;;;;5113171;28;20463;-68
2022/04/01 03:53:35;;;;;;;10.60;1.20;;;;;;;;;;5113193;28;20406;-70
2022/04/01 03:56:02;;;;;;;19.70;1.20;;;;;;;;;;5113080;28;20043;-70
2022/04/01 03:58:29;;;;;;;12.88;1.20;;;;;;;;;;5113154;28;20038;-70
2022/04/01 04:00:55;;;;;;;15.70;1.20;;;;;;;;;;5112575;28;20760;-69
2022/04/01 04:03:22;;;;;;;10.35;1.45;;;;;;;;;;5113202;28;20054;-68
2022/04/01 04:05:48;;;;;;;6.63;1.10;;;;;;;;;;5130343;27;20142;-69
2022/04/01 04:08:17;;;;;;;12.88;1.60;;;;;;;;;;5133653;27;20039;-68
2022/04/01 04:10:46;;;;;;;6.70;1.27;;;;;;;;;;5134660;27;20023;-69
2022/04/01 04:13:12;;;;;;;8.65;1.48;;;;;;;;;;5115596;27;20031;-70
2022/04/01 04:15:44;;;;;;;23.95;2.00;;;;;;;;;;5133586;27;20038;-69
2022/04/01 04:18:12;;;;;;;30.65;1.85;;;;;;;;;;5131755;27;20034;-69
2022/04/01 04:20:41;;;;;;;8.52;1.65;;;;;;;;;;5124214;27;20052;-69
2022/04/01 04:23:17;;;;;;;39.92;2.75;;;;;;;;;;5117789;27;20068;-69
2022/04/01 04:25:51;;;;;;;25.10;3.63;;;;;;;;;;5125337;27;20055;-70
2022/04/01 04:28:24;;;;;;;35.53;2.97;;;;;;;;;;5121394;27;20038;-69
2022/04/01 04:30:51;;;;;;;22.65;1.98;;;;;;;;;;5122399;27;20096;-69
2022/04/01 04:33:21;;;;;;;24.45;1.98;;;;;;;;;;5127872;27;20099;-68
2022/04/01 04:35:49;;;;;;;31.52;2.60;;;;;;;;;;5126521;27;20030;-68
2022/04/01 04:38:16;;;;;;;48.65;3.80;;;;;;;;;;5122875;27;20478;-70
2022/04/01 04:40:43;;;;;;;46.50;3.00;;;;;;;;;;5121172;27;20019;-69
2022/04/01 04:43:10;;;;;;;33.05;3.70;;;;;;;;;;5124990;27;20023;-69
2022/04/01 04:45:36;;;;;;;33.78;2.95;;;;;;;;;;5124325;27;20522;-67
2022/04/01 04:48:04;;;;;;;46.70;3.50;;;;;;;;;;5121482;27;20506;-67
2022/04/01 04:50:32;;;;;;;39.22;2.88;;;;;;;;;;5125491;27;20031;-67
2022/04/01 04:52:59;;;;;;;43.17;3.47;;;;;;;;;;5120985;27;20117;-71
2022/04/01 04:55:25;;;;;;;41.72;3.10;;;;;;;;;;5124444;27;20058;-72
2022/04/01 04:57:52;;;;;;;26.52;3.70;;;;;;;;;;5123956;27;20019;-71
2022/04/01 05:00:19;;;;;;;19.98;3.08;;;;;;;;;;5126442;27;20015;-71
2022/04/01 05:03:07;;;;;;;36.75;3.22;;;;;;;;;;5122579;27;20148;-71
2022/04/01 05:05:48;;;;;;;49.65;3.25;;;;;;;;;;5119242;27;20015;-73
2022/04/01 05:08:14;;;;;;;30.88;3.58;;;;;;;;;;5117785;27;20063;-73
2022/04/01 05:10:59;;;;;;;49.75;3.20;;;;;;;;;;5127764;27;20054;-71
2022/04/01 05:13:44;;;;;;;38.10;3.13;;;;;;;;;;5126287;27;20114;-66
2022/04/01 05:16:18;;;;;;;36.47;3.08;;;;;;;;;;5123189;27;20031;-68
2022/04/01 05:18:50;;;;;;;30.25;1.88;;;;;;;;;;5111658;28;20016;-69
2022/04/01 05:21:23;;;;;;;22.48;2.22;;;;;;;;;;5111416;28;20027;-67
2022/04/01 05:23:49;;;;;;;26.27;2.10;;;;;;;;;;5125136;27;20067;-67
2022/04/01 05:26:16;;;;;;;20.88;1.90;;;;;;;;;;5113363;27;20132;-68
2022/04/01 05:28:51;;;;;;;24.38;2.10;;;;;;;;;;5121044;27;20031;-67
2022/04/01 05:31:33;;;;;;;11.88;1.65;;;;;;;;;;5102899;28;20038;-67
2022/04/01 05:34:00;;;;;;;16.10;1.80;;;;;;;;;;5121069;27;20011;-64
2022/04/01 05:36:26;;;;;;;15.48;1.40;;;;;;;;;;5120581;27;20470;-69
2022/04/01 05:38:52;;;;;;;9.10;1.33;;;;;;;;;;5122060;27;20062;-65
2022/04/01 05:41:20;;;;;;;8.68;1.15;;;;;;;;;;5098721;28;20420;-66
2022/04/01 05:43:47;;;;;;;18.23;1.73;;;;;;;;;;5093343;28;20039;-67
2022/04/01 05:46:14;;;;;;;20.60;1.50;;;;;;;;;;5118431;28;20027;-71
2022/04/01 05:48:41;;;;;;;14.13;1.90;;;;;;;;;;5126620;28;20039;-68
2022/04/01 05:51:07;;;;;;;12.48;1.23;;;;;;;;;;5127188;28;20035;-64
2022/04/01 05:53:35;;;;;;;9.05;1.15;;;;;;;;;;5131328;28;20030;-73
2022/04/01 05:56:01;;;;;;;7.88;1.30;;;;;;;;;;5128205;28;20015;-68
2022/04/01 05:58:27;;;;;;;6.20;1.10;;;;;;;;;;5123776;27;20365;-65
2022/04/01 06:01:00;;;;;;;5.10;1.20;;;;;;;;;;5099382;28;20031;-63
2022/04/01 06:03:40;;;;;;;6.57;1.10;;;;;;;;;;5097734;28;20027;-73
2022/04/01 06:06:22;;;;;;;9.30;1.25;;;;;;;;;;5113592;28;20741;-73
2022/04/01 06:08:51;;;;;;;6.97;1.00;;;;;;;;;;5125180;28;20480;-77
2022/04/01 06:11:22;;;;;;;4.53;1.13;;;;;;;;;;5126247;28;20036;-64
2022/04/01 06:13:59;;;;;;;2.25;1.08;;;;;;;;;;5122123;28;20026;-67
2022/04/01 06:16:32;;;;;;;5.85;1.10;;;;;;;;;;5116012;28;20050;-65
2022/04/01 06:19:11;;;;;;;2.95;1.10;;;;;;;;;;5132456;28;20030;-66
2022/04/01 06:21:38;;;;;;;4.45;1.10;;;;;;;;;;5128006;28;20058;-66
2022/04/01 06:24:12;;;;;;;10.98;1.20;;;;;;;;;;5130407;28;20439;-66
2022/04/01 06:26:40;;;;;;;7.18;1.13;;;;;;;;;;5129737;28;20047;-68
2022/04/01 06:29:20;;;;;;;4.70;1.15;;;;;;;;;;5125215;27;20032;-70
2022/04/01 06:31:49;;;;;;;5.68;0.90;;;;;;;;;;5112369;28;20032;-66
2022/04/01 06:34:22;;;;;;;2.85;1.00;;;;;;;;;;5129365;28;20026;-64
2022/04/01 06:36:51;;;;;;;5.75;1.00;;;;;;;;;;5113434;28;20028;-71
2022/04/01 06:39:33;;;;;;;3.65;0.90;;;;;;;;;;5113245;28;20035;-69
2022/04/01 06:42:00;;;;;;;6.25;1.00;;;;;;;;;;5126460;28;20102;-71
2022/04/01 06:44:26;;;;;;;3.75;1.00;;;;;;;;;;5127627;28;20030;-70
2022/04/01 06:46:52;;;;;;;3.58;0.90;;;;;;;;;;5126523;27;20012;-74
2022/04/01 06:49:18;;;;;;;7.38;1.10;;;;;;;;;;5127749;27;20381;-67
2022/04/01 06:51:45;;;;;;;7.80;1.10;;;;;;;;;;5116356;27;20024;-72
2022/04/01 06:54:11;;;;;;;2.85;0.93;;;;;;;;;;5097705;28;20020;-73
2022/04/01 06:56:37;;;;;;;5.40;1.23;;;;;;;;;;5118136;27;20032;-71
2022/04/01 06:59:05;;;;;;;1.45;0.90;;;;;;;;;;5122659;27;20027;-71
2022/04/01 07:01:31;;;;;;;4.32;0.93;;;;;;;;;;5129893;27;20026;-73
2022/04/01 07:03:57;;;;;;;2.88;1.08;;;;;;;;;;5113821;27;20027;-69
2022/04/01 07:06:24;;;;;;;2.05;0.90;;;;;;;;;;5115219;27;20031;-72
2022/04/01 07:08:51;;;;;;;2.90;1.00;;;;;;;;;;5126300;27;20027;-72
2022/04/01 07:11:16;;;;;;;1.60;0.82;;;;;;;;;;5119691;27;20106;-72
2022/04/01 07:13:43;;;;;;;3.75;1.00;;;;;;;;;;5102776;28;20110;-72
2022/04/01 07:16:12;;;;;;;2.22;0.90;;;;;;;;;;5115453;28;20024;-72
2022/04/01 07:18:38;;;;;;;4.07;0.80;;;;;;;;;;5119798;27;20031;-71
2022/04/01 07:21:04;;;;;;;1.38;0.95;;;;;;;;;;5115614;28;20608;-71
2022/04/01 07:23:32;;;;;;;1.65;0.88;;;;;;;;;;5113858;27;20477;-72
2022/04/01 07:25:58;;;;;;;1.75;0.90;;;;;;;;;;5083158;28;20048;-71
2022/04/01 07:28:25;;;;;;;1.20;0.70;;;;;;;;;;5026430;28;20057;-73
2022/04/01 07:30:51;;;;;;;1.65;0.80;;;;;;;;;;5031192;28;20034;-72
2022/04/01 07:33:17;;;;;;;0.65;0.60;;;;;;;;;;5026684;28;20018;-71
2022/04/01 07:35:45;;;;;;;2.00;0.90;;;;;;;;;;5015497;28;20037;-68
2022/04/01 07:38:11;;;;;;;0.93;0.77;;;;;;;;;;5011677;28;20044;-70
2022/04/01 07:40:37;;;;;;;1.73;0.82;;;;;;;;;;5011473;28;20450;-69
2022/04/01 07:43:03;;;;;;;4.85;0.80;;;;;;;;;;5009924;28;20037;-67
2022/04/01 07:45:33;;;;;;;1.88;0.70;;;;;;;;;;5078928;28;20026;-68
2022/04/01 07:47:59;;;;;;;5.45;1.00;;;;;;;;;;5019881;28;20040;-63
2022/04/01 07:50:25;;;;;;;4.88;1.10;;;;;;;;;;5009833;28;20116;-66
2022/04/01 07:52:51;;;;;;;1.35;0.80;;;;;;;;;;5077186;28;20120;-62
2022/04/01 07:55:18;;;;;;;1.88;0.90;;;;;;;;;;5025350;28;20033;-64
2022/04/01 07:57:44;;;;;;;1.08;0.70;;;;;;;;;;5027638;28;20091;-68
2022/04/01 08:00:11;;;;;;;7.53;1.10;;;;;;;;;;5008867;28;20022;-62
2022/04/01 08:02:39;;;;;;;3.58;1.10;;;;;;;;;;5026511;28;20029;-64
2022/04/01 08:05:05;;;;;;;9.18;1.00;;;;;;;;;;5028960;28;20697;-65
2022/04/01 08:07:32;;;;;;;3.42;0.90;;;;;;;;;;5028951;28;20034;-67
2022/04/01 08:09:58;;;;;;;4.45;1.05;;;;;;;;;;5079657;28;20112;-64
2022/04/01 08:12:24;;;;;;;1.50;0.80;;;;;;;;;;5009049;28;20030;-67
2022/04/01 08:14:50;;;;;;;4.22;1.00;;;;;;;;;;5009125;28;20041;-65
2022/04/01 08:17:16;;;;;;;2.53;0.85;;;;;;;;;;5008741;28;20042;-69
2022/04/01 08:19:43;;;;;;;2.53;0.95;;;;;;;;;;5096627;27;20025;-61
2022/04/01 08:22:09;;;;;;;3.17;0.82;;;;;;;;;;5080777;28;20632;-62
2022/04/01 08:24:36;;;;;;;3.65;0.82;;;;;;;;;;5021298;28;20049;-70
2022/04/01 08:27:02;;;;;;;2.13;0.80;;;;;;;;;;5085675;27;20059;-69
2022/04/01 08:29:29;;;;;;;2.00;0.70;;;;;;;;;;5113006;28;20027;-69
2022/04/01 08:31:55;;;;;;;2.92;1.00;;;;;;;;;;5130331;27;20041;-69
2022/04/01 08:34:21;;;;;;;1.10;0.80;;;;;;;;;;5114053;27;20374;-69
2022/04/01 08:36:47;;;;;;;2.17;0.90;;;;;;;;;;5112814;28;20032;-70
2022/04/01 08:39:13;;;;;;;1.90;0.77;;;;;;;;;;5114973;27;20023;-70
2022/04/01 08:41:39;;;;;;;0.93;0.70;;;;;;;;;;5118302;27;20030;-69
2022/04/01 08:44:06;;;;;;;2.72;0.95;;;;;;;;;;5112282;28;20206;-69
2022/04/01 08:46:33;;;;;;;1.10;0.70;;;;;;;;;;5094332;28;20502;-67
2022/04/01 08:48:59;;;;;;;1.70;0.85;;;;;;;;;;5130196;27;20092;-62
2022/04/01 08:51:26;;;;;;;4.57;0.90;;;;;;;;;;5132778;27;20060;-69
2022/04/01 08:53:52;;;;;;;3.25;0.88;;;;;;;;;;5125401;27;20023;-68
2022/04/01 08:56:21;;;;;;;1.52;0.82;;;;;;;;;;5111289;28;20525;-63
2022/04/01 08:58:47;;;;;;;1.10;0.70;;;;;;;;;;5126807;27;20038;-66
2022/04/01 09:01:14;;;;;;;1.90;0.77;;;;;;;;;;5119110;27;20037;-69
2022/04/01 09:03:41;;;;;;;2.08;0.90;;;;;;;;;;5117817;27;20020;-69
2022/04/01 09:06:07;;;;;;;1.67;0.80;;;;;;;;;;5121566;27;20027;-65
2022/04/01 09:08:35;;;;;;;3.75;0.70;;;;;;;;;;5118152;27;20043;-64
2022/04/01 09:11:04;;;;;;;11.05;0.77;;;;;;;;;;5125911;27;20496;-63
2022/04/01 09:13:47;;;;;;;1.95;0.90;;;;;;;;;;5121477;27;20200;-62
2022/04/01 09:16:27;;;;;;;7.05;0.80;;;;;;;;;;5105560;27;20402;-63
2022/04/01 09:18:57;;;;;;;6.18;0.93;;;;;;;;;;5119799;27;20015;-66
2022/04/01 09:21:27;;;;;;;3.83;0.90;;;;;;;;;;5115785;27;20030;-65
2022/04/01 09:23:53;;;;;;;3.40;0.82;;;;;;;;;;5112610;27;20490;-70
2022/04/01 09:26:28;;;;;;;1.65;0.80;;;;;;;;;;5122566;27;20139;-69
2022/04/01 09:28:55;;;;;;;11.18;1.02;;;;;;;;;;5114177;27;20157;-70
2022/04/01 09:31:24;;;;;;;1.65;0.70;;;;;;;;;;5123792;27;20055;-65
2022/04/01 09:33:51;;;;;;;3.15;0.80;;;;;;;;;;5121819;27;20064;-68
2022/04/01 09:36:29;;;;;;;1.98;0.80;;;;;;;;;;5107077;27;20478;-69
2022/04/01 09:38:55;;;;;;;3.45;0.82;;;;;;;;;;5118097;27;20505;-69
2022/04/01 09:41:21;;;;;;;3.72;0.82;;;;;;;;;;5111415;28;20024;-70
2022/04/01 09:43:47;;;;;;;4.40;0.70;;;;;;;;;;5124863;28;20041;-68
2022/04/01 09:46:23;;;;;;;6.53;0.90;;;;;;;;;;5100434;28;20097;-63
2022/04/01 09:48:49;;;;;;;2.60;0.85;;;;;;;;;;5118535;28;20508;-66
2022/04/01 09:51:15;;;;;;;1.15;0.80;;;;;;;;;;5102515;28;20019;-65
2022/04/01 09:53:50;;;;;;;2.90;0.80;;;;;;;;;;5126417;28;20091;-69
2022/04/01 09:56:16;;;;;;;4.95;0.80;;;;;;;;;;5126950;28;20034;-69
2022/04/01 09:58:42;;;;;;;4.15;0.80;;;;;;;;;;5126093;27;20023;-67
2022/04/01 10:01:09;;;;;;;4.63;0.90;;;;;;;;;;5111624;28;20024;-65
2022/04/01 10:03:34;;;;;;;0.85;0.65;;;;;;;;;;5118340;28;20069;-69
2022/04/01 10:06:01;;;;;;;0.77;0.60;;;;;;;;;;5128816;28;20046;-69
2022/04/01 10:08:27;;;;;;;3.75;0.70;;;;;;;;;;5119963;28;20035;-70
2022/04/01 10:10:54;;;;;;;1.30;0.60;;;;;;;;;;5118252;28;20061;-69
2022/04/01 10:13:30;;;;;;;1.33;0.60;;;;;;;;;;5111387;28;20027;-71
2022/04/01 10:15:57;;;;;;;0.65;0.60;;;;;;;;;;5125328;28;20045;-64
2022/04/01 10:18:24;;;;;;;0.60;0.52;;;;;;;;;;5125890;28;20385;-66
2022/04/01 10:20:53;;;;;;;1.13;0.63;;;;;;;;;;5124566;27;20371;-70
2022/04/01 10:23:21;;;;;;;1.60;0.70;;;;;;;;;;5115244;28;20447;-70
2022/04/01 10:26:04;;;;;;;1.02;0.60;;;;;;;;;;5129457;27;20035;-69
2022/04/01 10:28:30;;;;;;;1.13;0.70;;;;;;;;;;5127935;27;20039;-66
2022/04/01 10:30:58;;;;;;;0.82;0.77;;;;;;;;;;5124192;27;20090;-67
2022/04/01 10:33:31;;;;;;;2.00;0.80;;;;;;;;;;5101345;27;20081;-65
2022/04/01 10:35:57;;;;;;;0.77;0.70;;;;;;;;;;5114991;28;20034;-68
2022/04/01 10:38:29;;;;;;;3.15;0.77;;;;;;;;;;5125718;27;20027;-71
2022/04/01 10:41:06;;;;;;;3.03;0.80;;;;;;;;;;5130743;27;20098;-69
2022/04/01 10:43:33;;;;;;;1.13;0.70;;;;;;;;;;5109991;27;20020;-63
2022/04/01 10:46:01;;;;;;;2.70;0.70;;;;;;;;;;5109048;27;20034;-66
2022/04/01 10:53:56;;;;;;;3.92;0.75;;;;;;;;;;5127287;27;20038;-67
2022/04/01 10:56:24;;;;;;;7.25;0.80;;;;;;;;;;5127897;27;20375;-68
2022/04/01 10:59:09;;;;;;;3.25;0.65;;;;;;;;;;5119215;27;20020;-72
2022/04/01 11:01:37;;;;;;;3.65;0.65;;;;;;;;;;5124967;27;20031;-72
2022/04/01 11:04:09;;;;;;;2.40;0.80;;;;;;;;;;5120490;27;20030;-71
2022/04/01 11:06:50;;;;;;;11.07;0.80;;;;;;;;;;5127656;27;20037;-66
2022/04/01 11:09:34;;;;;;;2.35;0.60;;;;;;;;;;5121467;27;20084;-67
2022/04/01 11:12:16;;;;;;;2.25;0.98;;;;;;;;;;5099945;28;20026;-66
2022/04/01 11:15:09;;;;;;;2.50;0.77;;;;;;;;;;5124934;27;20019;-64
2022/04/01 11:17:35;;;;;;;;;;;;;;;;;;5125233;27;20169;-67
2022/04/01 11:20:12;;;;;;;3.85;0.90;;;;;;;;;;5122730;27;20043;-63
2022/04/01 11:22:43;;;;;;;1.42;0.70;;;;;;;;;;5118521;27;20366;-68
2022/04/01 11:25:12;;;;;;;2.90;0.85;;;;;;;;;;5121303;27;20015;-67
2022/04/01 11:27:43;;;;;;;0.60;0.60;;;;;;;;;;5028845;28;20087;-67
2022/04/01 11:30:13;;;;;;;1.63;0.80;;;;;;;;;;5018395;28;20021;-66
2022/04/01 11:32:40;;;;;;;3.17;0.90;;;;;;;;;;5018576;28;20017;-61
2022/04/01 11:35:07;;;;;;;3.60;0.80;;;;;;;;;;5016711;28;20018;-67
2022/04/01 11:37:36;;;;;;;2.80;0.70;;;;;;;;;;5020875;28;20069;-66
2022/04/01 11:40:06;;;;;;;1.80;0.80;;;;;;;;;;5016144;28;20026;-66
2022/04/01 11:42:32;;;;;;;1.33;0.82;;;;;;;;;;5017248;28;20025;-66
2022/04/01 11:44:59;;;;;;;13.48;0.88;;;;;;;;;;5017377;28;20071;-66
2022/04/01 11:47:32;;;;;;;2.92;1.00;;;;;;;;;;5016729;28;20030;-65
2022/04/01 11:50:08;;;;;;;0.80;0.65;;;;;;;;;;5087706;28;20025;-66
2022/04/01 11:52:38;;;;;;;1.60;0.80;;;;;;;;;;5018934;28;20037;-66
2022/04/01 11:55:14;;;;;;;1.25;0.82;;;;;;;;;;5085169;28;20034;-67
2022/04/01 11:57:40;;;;;;;1.23;0.70;;;;;;;;;;5014482;28;20021;-66
2022/04/01 12:00:13;;;;;;;1.60;0.98;;;;;;;;;;5018507;28;20026;-67
2022/04/01 12:02:39;;;;;;;;;;;;;;;;;;5019242;28;20021;-64
2022/04/01 12:05:05;;;;;;;2.15;0.80;;;;;;;;;;5041152;22;19930;-64
2022/04/01 12:10:20;;;;;;;1.67;0.90;;;;;;;;;;5055272;28;20082;-64
2022/04/01 12:13:12;;;;;;;1.10;0.85;;;;;;;;;;5064657;28;20554;-65
2022/04/01 12:15:38;;;;;;;0.87;0.73;;;;;;;;;;5055038;28;20052;-64
2022/04/01 12:18:06;;;;;;;2.60;0.80;;;;;;;;;;5057168;28;20502;-66
2022/04/01 12:20:38;;;;;;;1.48;0.98;;;;;;;;;;5059333;28;20112;-68
2022/04/01 12:23:05;;;;;;;1.77;0.90;;;;;;;;;;5058950;28;20024;-66
2022/04/01 12:25:31;;;;;;;3.78;0.70;;;;;;;;;;5059323;28;20013;-66
2022/04/01 12:28:00;;;;;;;1.25;0.80;;;;;;;;;;5038489;28;20368;-66
2022/04/01 12:30:30;;;;;;;0.82;0.82;;;;;;;;;;5040441;28;20120;-64
2022/04/01 12:32:56;;;;;;;2.15;0.77;;;;;;;;;;5057676;28;20100;-67
2022/04/01 12:35:22;;;;;;;0.70;0.70;;;;;;;;;;5058103;28;20028;-64
2022/04/01 12:38:02;;;;;;;2.40;1.02;;;;;;;;;;5057449;28;20024;-66
2022/04/01 12:40:28;;;;;;;1.10;0.82;;;;;;;;;;5059911;28;20023;-64
2022/04/01 12:42:54;;;;;;;1.52;0.88;;;;;;;;;;5058490;28;20029;-66
2022/04/01 12:45:20;;;;;;;5.32;0.90;;;;;;;;;;5056946;28;20104;-64
2022/04/01 12:47:46;;;;;;;2.35;0.82;;;;;;;;;;5059897;28;20190;-66
2022/04/01 12:50:30;;;;;;;0.90;0.80;;;;;;;;;;5057863;28;20028;-63
2022/04/01 12:53:08;;;;;;;4.13;1.00;;;;;;;;;;5053924;28;20021;-65
2022/04/01 12:55:34;;;;;;;0.90;0.90;;;;;;;;;;5034159;28;20031;-68
2022/04/01 12:58:00;;;;;;;4.05;1.00;;;;;;;;;;5061944;28;20097;-63
2022/04/01 13:00:26;;;;;;;1.60;0.80;;;;;;;;;;5057672;28;20467;-69
2022/04/01 13:02:52;;;;;;;9.82;1.00;;;;;;;;;;5052706;28;20048;-64
2022/04/01 13:05:19;;;;;;;8.70;1.15;;;;;;;;;;5054383;28;20090;-67
2022/04/01 13:07:46;;;;;;;7.95;1.33;;;;;;;;;;5052054;28;20036;-65
2022/04/01 13:10:13;;;;;;;7.35;1.05;;;;;;;;;;5030942;28;20131;-70
2022/04/01 13:12:41;;;;;;;7.25;0.90;;;;;;;;;;5058732;28;20048;-65
2022/04/01 13:15:07;;;;;;;4.68;0.98;;;;;;;;;;5051742;28;20040;-70
2022/04/01 13:17:50;;;;;;;13.23;1.17;;;;;;;;;;5048137;28;20025;-69
2022/04/01 13:20:20;;;;;;;13.13;1.13;;;;;;;;;;5049220;28;20032;-69
2022/04/01 13:22:45;;;;;;;6.30;1.10;;;;;;;;;;5049653;28;20037;-69
2022/04/01 13:25:12;;;;;;;11.35;0.70;;;;;;;;;;5031357;28;20021;-67
2022/04/01 13:27:39;;;;;;;14.98;1.55;;;;;;;;;;5049335;28;20041;-66
2022/04/01 13:30:06;;;;;;;5.40;0.80;;;;;;;;;;5031322;28;20041;-69
2022/04/01 13:32:32;;;;;;;15.93;1.20;;;;;;;;;;5049926;28;20587;-69
2022/04/01 13:34:58;;;;;;;3.50;1.05;;;;;;;;;;5049322;28;20800;-69
2022/04/01 13:37:24;;;;;;;5.47;1.10;;;;;;;;;;5031723;28;20033;-65
2022/04/01 13:39:50;;;;;;;3.97;0.93;;;;;;;;;;5031714;28;20075;-71
2022/04/01 13:42:16;;;;;;;11.63;1.17;;;;;;;;;;5049449;28;20065;-66
2022/04/01 13:44:42;;;;;;;11.13;1.35;;;;;;;;;;5049793;28;20472;-69
2022/04/01 13:47:11;;;;;;;8.82;1.00;;;;;;;;;;5049404;28;20029;-70
2022/04/01 13:49:37;;;;;;;2.65;1.00;;;;;;;;;;5049245;28;20510;-70
2022/04/01 13:52:03;;;;;;;10.10;1.20;;;;;;;;;;5049447;28;20014;-70
2022/04/01 13:54:29;;;;;;;9.48;1.35;;;;;;;;;;5048359;28;20491;-62
2022/04/01 13:56:55;;;;;;;7.28;1.40;;;;;;;;;;5052309;28;20082;-69
2022/04/01 13:59:21;;;;;;;10.60;1.50;;;;;;;;;;5035830;28;20054;-71
2022/04/01 14:01:48;;;;;;;17.80;1.80;;;;;;;;;;5052704;28;20099;-70
2022/04/01 14:04:15;;;;;;;15.15;1.52;;;;;;;;;;5053236;28;20028;-69
2022/04/01 14:06:41;;;;;;;9.40;1.40;;;;;;;;;;5052710;28;20068;-67
2022/04/01 14:09:08;;;;;;;12.82;1.58;;;;;;;;;;5052230;28;20048;-66
2022/04/01 14:11:35;;;;;;;15.95;1.50;;;;;;;;;;5052608;28;20452;-66
2022/04/01 14:14:05;;;;;;;6.25;1.15;;;;;;;;;;5052758;28;20021;-67
2022/04/01 14:16:31;;;;;;;4.13;1.00;;;;;;;;;;5052096;28;20215;-68
2022/04/01 14:18:58;;;;;;;8.07;1.27;;;;;;;;;;5034438;28;20120;-66
2022/04/01 14:21:24;;;;;;;7.97;1.33;;;;;;;;;;5061626;28;20025;-66
2022/04/01 14:23:50;;;;;;;6.55;1.15;;;;;;;;;;5068754;28;20040;-67
2022/04/01 14:26:17;;;;;;;9.55;1.48;;;;;;;;;;5045247;28;20040;-67
2022/04/01 14:28:43;;;;;;;2.95;1.15;;;;;;;;;;5050895;28;20092;-66
2022/04/01 14:31:09;;;;;;;4.35;1.20;;;;;;;;;;5034720;28;20607;-63
2022/04/01 14:33:35;;;;;;;3.58;1.20;;;;;;;;;;5052338;28;20147;-65
2022/04/01 14:36:01;;;;;;;6.15;1.23;;;;;;;;;;5052120;28;20025;-66
2022/04/01 14:38:28;;;;;;;12.13;1.10;;;;;;;;;;5058226;28;20351;-64
2022/04/01 14:40:54;;;;;;;3.63;1.10;;;;;;;;;;5060514;28;20386;-65
2022/04/01 14:43:21;;;;;;;2.53;1.10;;;;;;;;;;5063083;28;20029;-65
2022/04/01 14:45:47;;;;;;;1.58;1.05;;;;;;;;;;5062942;28;20108;-65
2022/04/01 14:48:13;;;;;;;7.10;1.05;;;;;;;;;;5062966;28;20044;-66
2022/04/01 14:50:39;;;;;;;4.18;0.95;;;;;;;;;;5052437;28;20467;-65
2022/04/01 14:53:06;;;;;;;5.20;1.15;;;;;;;;;;5051613;28;20025;-65
2022/04/01 14:55:34;;;;;;;2.90;1.10;;;;;;;;;;5051159;28;20040;-65
2022/04/01 14:58:00;;;;;;;6.68;1.10;;;;;;;;;;5051711;28;20078;-65
2022/04/01 15:00:26;;;;;;;4.10;1.00;;;;;;;;;;5051763;28;20046;-65